Time;durP1;ratioP1;P1;durP2;ratioP2;P2;SDS_P1;SDS_P2;PMS_P1;PMS_P2;Temp;Humidity;BMP_temperature;BMP_pressure;BME280_temperature;BME280_humidity;BME280_pressure;Samples;Min_cycle;Max_cycle;Signal;HPM_P1;HPM_P2
2022/05/22 00:09:32;;;;;;;3.10;2.20;;;;;;;10.09;77.70;99163.67;430955;1273;141999;-50
2022/05/22 00:19:40;;;;;;;3.70;2.30;;;;;;;9.92;77.85;99152.03;429676;1273;143862;-49
2022/05/22 00:29:45;;;;;;;2.70;2.10;;;;;;;9.66;77.99;99151.16;434068;1273;141609;-49
2022/05/22 00:39:51;;;;;;;4.20;2.70;;;;;;;9.56;78.62;99142.94;431173;1273;141222;-48
2022/05/22 00:50:00;;;;;;;3.50;1.70;;;;;;;9.62;78.54;99142.03;431195;1273;164435;-51
2022/05/22 01:00:12;;;;;;;2.80;1.90;;;;;;;9.57;78.61;99152.46;430481;1273;143642;-47
2022/05/22 01:10:19;;;;;;;3.80;2.00;;;;;;;9.49;78.48;99159.13;430844;1272;142307;-51
2022/05/22 01:20:25;;;;;;;2.40;1.40;;;;;;;9.59;78.06;99158.82;429265;1273;143621;-50
2022/05/22 01:30:31;;;;;;;1.70;1.20;;;;;;;9.75;77.79;99163.14;431770;1273;141487;-50
2022/05/22 01:40:37;;;;;;;4.20;1.80;;;;;;;9.84;77.75;99160.98;430790;1273;142136;-47
2022/05/22 01:50:45;;;;;;;2.60;1.40;;;;;;;9.88;78.03;99150.59;432071;1273;142302;-47
2022/05/22 02:00:51;;;;;;;1.80;1.40;;;;;;;9.93;77.55;99142.02;430588;1273;141878;-53
2022/05/22 02:10:59;;;;;;;2.60;1.30;;;;;;;9.90;77.23;99140.98;430092;1273;164862;-48
2022/05/22 02:21:06;;;;;;;1.40;0.80;;;;;;;9.85;76.91;99144.34;434472;1273;142453;-49
2022/05/22 02:31:12;;;;;;;1.80;1.20;;;;;;;9.80;76.90;99143.40;440565;1273;142476;-52
2022/05/22 02:41:19;;;;;;;2.80;1.30;;;;;;;9.88;76.54;99140.46;446461;1273;141891;-50
2022/05/22 02:51:25;;;;;;;5.30;1.30;;;;;;;10.00;76.55;99138.08;440564;1272;141992;-50
2022/05/22 03:01:30;;;;;;;2.50;1.30;;;;;;;10.21;76.40;99136.65;429758;1273;248561;-48
2022/05/22 03:11:38;;;;;;;1.60;1.50;;;;;;;10.52;76.41;99139.08;431794;1273;141112;-49
2022/05/22 03:21:44;;;;;;;2.50;1.80;;;;;;;10.64;76.12;99132.44;441995;1273;142074;-50
2022/05/22 03:31:50;;;;;;;5.30;2.50;;;;;;;10.60;76.57;99131.29;445195;1272;141880;-51
2022/05/22 03:41:56;;;;;;;1.70;1.50;;;;;;;10.51;76.28;99130.20;447274;1272;143110;-50
2022/05/22 03:52:01;;;;;;;1.90;1.70;;;;;;;10.52;75.98;99136.39;441139;1273;146052;-49
2022/05/22 04:02:07;;;;;;;4.70;2.60;;;;;;;10.61;75.96;99146.66;446433;1273;142670;-57
2022/05/22 04:12:15;;;;;;;4.50;2.80;;;;;;;10.68;76.18;99144.94;447228;1272;141890;-53
2022/05/22 04:22:20;;;;;;;3.70;2.10;;;;;;;10.85;75.84;99148.30;446974;1271;141243;-49
2022/05/22 04:32:26;;;;;;;3.30;2.40;;;;;;;10.94;75.62;99145.84;446423;1273;141847;-52
2022/05/22 04:42:35;;;;;;;2.10;1.80;;;;;;;11.06;75.34;99144.65;440782;1271;142482;-51
2022/05/22 04:52:39;;;;;;;;;;;;;;;12.56;73.99;99145.41;436895;1272;142151;-49
2022/05/22 05:02:45;;;;;;;2.20;1.20;;;;;;;14.53;70.17;99140.83;444628;1273;127926;-51
2022/05/22 05:12:50;;;;;;;0.90;0.90;;;;;;;13.28;68.24;99151.48;435273;1272;141543;-47
2022/05/22 05:22:56;;;;;;;2.30;1.50;;;;;;;12.49;68.79;99154.26;432413;1273;143053;-50
2022/05/22 05:33:02;;;;;;;0.40;0.40;;;;;;;13.33;68.71;99156.23;429760;1273;141712;-48
2022/05/22 05:43:09;;;;;;;1.40;0.80;;;;;;;19.25;63.11;99149.27;439720;1273;144386;-50
2022/05/22 05:53:14;;;;;;;0.80;0.80;;;;;;;18.91;58.56;99156.31;436008;1273;142321;-52
2022/05/22 06:03:20;;;;;;;1.20;1.00;;;;;;;25.81;52.45;99142.35;447001;1271;142773;-55
2022/05/22 06:13:26;;;;;;;6.10;1.00;;;;;;;22.02;49.41;99148.60;441803;1273;141407;-53
2022/05/22 06:23:33;;;;;;;2.10;0.90;;;;;;;21.31;49.25;99152.20;446292;1272;143163;-54
2022/05/22 06:33:39;;;;;;;1.10;0.80;;;;;;;18.15;50.22;99147.19;446830;1273;140756;-53
2022/05/22 06:43:46;;;;;;;0.70;0.70;;;;;;;18.47;52.45;99142.60;440924;1273;141926;-52
2022/05/22 06:53:51;;;;;;;0.70;0.60;;;;;;;27.56;43.75;99132.39;436441;1271;141182;-54
2022/05/22 07:03:57;;;;;;;0.90;0.60;;;;;;;26.79;39.50;99145.37;432420;1273;144397;-51
2022/05/22 07:14:03;;;;;;;1.70;0.50;;;;;;;22.78;40.06;99147.12;434511;1273;146491;-53
2022/05/22 07:24:10;;;;;;;1.50;0.70;;;;;;;19.22;43.59;99146.73;431848;1273;141366;-56
2022/05/22 07:34:15;;;;;;;1.00;0.80;;;;;;;18.50;45.84;99156.48;430945;1273;142902;-53
2022/05/22 07:44:21;;;;;;;2.90;1.70;;;;;;;17.95;47.64;99156.02;430516;1270;145317;-52
2022/05/22 07:54:27;;;;;;;1.20;1.00;;;;;;;18.40;47.43;99152.33;430958;1272;141772;-52
2022/05/22 08:04:34;;;;;;;3.40;1.30;;;;;;;17.53;48.11;99149.89;430381;1273;141793;-50
2022/05/22 08:14:40;;;;;;;2.60;1.40;;;;;;;16.62;49.39;99143.56;430890;1273;142043;-55
2022/05/22 08:24:45;;;;;;;1.30;1.00;;;;;;;15.95;50.75;99143.28;430688;1273;140998;-56
2022/05/22 08:34:54;;;;;;;3.70;1.20;;;;;;;15.68;51.66;99151.05;431451;1273;141944;-52
2022/05/22 08:44:59;;;;;;;4.10;1.40;;;;;;;15.12;52.81;99147.14;435292;1273;141241;-54
2022/05/22 08:55:13;;;;;;;3.50;1.50;;;;;;;14.44;54.07;99160.06;433006;1273;142255;-53
2022/05/22 09:05:22;;;;;;;4.10;2.10;;;;;;;14.21;55.67;99168.57;429861;1273;140824;-51
2022/05/22 09:15:34;;;;;;;3.00;1.80;;;;;;;14.02;56.78;99172.48;431846;1273;140706;-52
2022/05/22 09:26:01;;;;;;;3.00;2.00;;;;;;;13.64;57.93;99174.97;431328;1273;141823;-53
2022/05/22 09:36:21;;;;;;;3.20;2.10;;;;;;;13.08;59.31;99175.46;432821;1273;145551;-54
2022/05/22 09:46:48;;;;;;;2.80;2.10;;;;;;;12.58;60.64;99169.39;436094;1272;141944;-51
2022/05/22 09:57:05;;;;;;;2.40;1.90;;;;;;;12.68;61.11;99169.28;432838;1273;141570;-52
2022/05/22 10:07:26;;;;;;;3.00;1.60;;;;;;;12.85;60.72;99173.20;430845;1273;141659;-54
2022/05/22 10:17:49;;;;;;;4.60;1.50;;;;;;;13.12;60.54;99171.73;430714;1272;142568;-55
2022/05/22 10:28:00;;;;;;;4.00;1.20;;;;;;;14.26;59.16;99166.86;431483;1273;143594;-50
2022/05/22 10:38:12;;;;;;;6.30;1.70;;;;;;;15.57;56.51;99153.48;431817;1273;144878;-54
2022/05/22 10:48:22;;;;;;;1.00;1.00;;;;;;;15.36;55.28;99163.67;431482;1273;141130;-52
2022/05/22 10:58:30;;;;;;;1.60;0.90;;;;;;;14.65;55.98;99177.70;431078;1273;142090;-49
2022/05/22 11:08:37;;;;;;;2.00;1.40;;;;;;;14.05;56.95;99179.61;430358;1273;141498;-48
2022/05/22 11:18:44;;;;;;;1.10;1.00;;;;;;;13.99;57.14;99180.77;430613;1273;140867;-52
2022/05/22 11:29:21;;;;;;;1.00;0.80;;;;;;;14.50;56.10;99177.05;430920;1273;140707;-54
2022/05/22 11:39:46;;;;;;;1.30;0.80;;;;;;;15.48;53.85;99171.43;430716;1273;142348;-53
2022/05/22 11:50:03;;;;;;;2.20;0.70;;;;;;;15.83;52.43;99170.02;429975;1273;142086;-50
2022/05/22 12:00:17;;;;;;;1.30;0.80;;;;;;;16.29;51.73;99176.85;431055;1273;141736;-52
2022/05/22 12:10:30;;;;;;;1.70;0.60;;;;;;;16.22;50.02;99169.77;432701;1271;140960;-51
2022/05/22 12:20:46;;;;;;;0.90;0.80;;;;;;;15.98;50.12;99173.02;429622;1273;142676;-54
2022/05/22 12:30:53;;;;;;;2.10;0.90;;;;;;;15.09;51.13;99185.96;431229;1273;142149;-55
2022/05/22 12:41:07;;;;;;;0.80;0.80;;;;;;;14.82;52.52;99178.09;429961;1273;142154;-55
2022/05/22 12:51:18;;;;;;;0.70;0.60;;;;;;;15.41;51.65;99161.98;430469;1273;143078;-50
2022/05/22 13:01:30;;;;;;;1.40;1.00;;;;;;;15.43;51.33;99155.20;431817;1273;141918;-54
2022/05/22 13:11:45;;;;;;;0.60;0.50;;;;;;;15.66;51.59;99156.70;439079;1273;141061;-51
2022/05/22 13:22:25;;;;;;;2.40;0.70;;;;;;;16.20;50.33;99149.09;430925;1273;141244;-50
2022/05/22 13:32:34;;;;;;;1.80;1.30;;;;;;;16.22;50.19;99146.86;446465;1272;143324;-54
2022/05/22 13:43:35;;;;;;;2.90;0.50;;;;;;;16.27;49.89;99139.45;447236;1272;141874;-54
2022/05/22 13:54:02;;;;;;;0.50;0.30;;;;;;;16.41;49.95;99132.67;436635;1273;141102;-53
2022/05/22 14:04:09;;;;;;;0.70;0.40;;;;;;;16.23;49.12;99131.52;441334;1271;142294;-54
2022/05/22 14:14:22;;;;;;;3.40;0.90;;;;;;;16.31;49.06;99124.10;446452;1272;140994;-53
2022/05/22 14:34:53;;;;;;;1.30;0.30;;;;;;;17.19;46.78;99121.45;439212;1273;146245;-53
2022/05/22 14:45:02;;;;;;;2.30;0.40;;;;;;;16.99;46.63;99120.56;443462;1273;141385;-52
2022/05/22 14:55:16;;;;;;;1.90;0.50;;;;;;;16.43;47.46;99123.67;432776;1271;140454;-55
2022/05/22 15:05:40;;;;;;;0.90;0.30;;;;;;;16.42;47.60;99119.35;446944;1271;225346;-54
2022/05/22 15:15:46;;;;;;;2.00;0.50;;;;;;;16.52;47.57;99123.15;438679;1273;141600;-53
2022/05/22 15:25:54;;;;;;;1.50;0.80;;;;;;;16.10;47.66;99124.04;444667;1273;141699;-54
2022/05/22 15:36:12;;;;;;;1.50;0.30;;;;;;;15.68;48.53;99124.23;447312;1272;140736;-53
2022/05/22 15:46:26;;;;;;;0.90;0.50;;;;;;;15.59;49.34;99120.48;439695;1273;182443;-55
2022/05/22 15:56:33;;;;;;;1.60;0.40;;;;;;;15.58;49.15;99118.61;445595;1271;143787;-54
2022/05/22 16:06:39;;;;;;;0.90;0.40;;;;;;;15.27;48.60;99114.44;435911;1273;141277;-55
2022/05/22 16:16:48;;;;;;;4.20;1.20;;;;;;;14.95;49.14;99117.75;442297;1273;140878;-54
2022/05/22 16:26:54;;;;;;;0.90;0.80;;;;;;;14.90;49.79;99126.20;447063;1272;141967;-52
2022/05/22 16:37:03;;;;;;;1.90;0.40;;;;;;;14.79;50.25;99139.30;446967;1273;141203;-55
2022/05/22 16:57:41;;;;;;;3.40;1.20;;;;;;;13.82;54.53;99146.70;436423;1273;128281;-54
2022/05/22 17:07:47;;;;;;;1.10;1.10;;;;;;;13.65;54.51;99145.14;446238;1271;141735;-58
2022/05/22 17:17:53;;;;;;;1.10;0.50;;;;;;;13.55;54.34;99148.63;447184;1272;142805;-55
2022/05/22 17:28:00;;;;;;;3.50;0.90;;;;;;;13.44;54.59;99152.30;436347;1272;142720;-54
2022/05/22 17:38:10;;;;;;;1.80;1.10;;;;;;;13.29;55.15;99154.42;437272;1273;183292;-57
2022/05/22 17:48:16;;;;;;;1.50;0.80;;;;;;;13.04;55.58;99153.96;438946;1273;142850;-54
2022/05/22 17:58:23;;;;;;;1.40;0.80;;;;;;;12.85;56.05;99151.27;441481;1273;141775;-54
2022/05/22 18:08:32;;;;;;;0.70;0.50;;;;;;;12.73;56.44;99152.68;446267;1271;142147;-60
2022/05/22 18:18:40;;;;;;;2.10;0.70;;;;;;;12.65;56.91;99153.17;432457;1273;141380;-60
2022/05/22 18:28:49;;;;;;;0.80;0.80;;;;;;;12.45;57.46;99155.10;446215;1273;144615;-62
2022/05/22 18:38:54;;;;;;;1.70;1.10;;;;;;;12.33;57.74;99162.92;446533;1273;141583;-56
2022/05/22 18:49:00;;;;;;;0.90;0.80;;;;;;;12.21;57.91;99169.45;442146;1271;141762;-57
2022/05/22 18:59:10;;;;;;;0.90;0.80;;;;;;;12.00;58.17;99188.38;431852;1273;142234;-56
2022/05/22 19:09:16;;;;;;;3.30;1.40;;;;;;;11.76;58.52;99196.86;430128;1273;141830;-56
2022/05/22 19:19:23;;;;;;;2.80;2.10;;;;;;;11.49;59.03;99211.64;430075;1273;141700;-58
2022/05/22 19:29:34;;;;;;;4.10;1.80;;;;;;;11.17;59.88;99218.11;431018;1273;143254;-56
2022/05/22 19:39:40;;;;;;;4.30;1.90;;;;;;;11.02;60.53;99227.23;432346;1271;142659;-62
2022/05/22 19:49:49;;;;;;;5.80;2.50;;;;;;;10.87;61.24;99239.36;434838;1273;142110;-61
2022/05/22 19:59:55;;;;;;;4.30;1.70;;;;;;;10.63;62.23;99236.45;433058;1273;142267;-59
2022/05/22 20:10:01;;;;;;;3.70;2.60;;;;;;;10.43;62.93;99231.15;431372;1273;146619;-61
2022/05/22 20:20:09;;;;;;;3.10;1.90;;;;;;;10.24;63.39;99238.92;429370;1273;142840;-60
2022/05/22 20:30:17;;;;;;;4.80;2.50;;;;;;;10.01;64.17;99244.14;430508;1273;142484;-61
2022/05/22 20:40:23;;;;;;;4.90;2.70;;;;;;;9.79;64.80;99252.07;431285;1273;142433;-60
2022/05/22 20:50:30;;;;;;;6.00;2.70;;;;;;;9.68;64.94;99255.41;431569;1273;194667;-59
2022/05/22 21:00:37;;;;;;;5.90;2.70;;;;;;;9.68;65.05;99258.86;446870;1273;142744;-60
2022/05/22 21:10:43;;;;;;;9.10;2.70;;;;;;;9.61;65.13;99265.80;435117;1273;142143;-61
2022/05/22 21:20:49;;;;;;;6.20;3.20;;;;;;;9.39;65.32;99264.95;430581;1273;142222;-61
2022/05/22 21:31:16;;;;;;;4.10;2.70;;;;;;;9.19;65.88;99266.86;431024;1273;141818;-57
2022/05/22 21:41:24;;;;;;;3.10;2.70;;;;;;;9.00;66.21;99268.06;432422;1273;142414;-49
2022/05/22 21:51:30;;;;;;;3.70;2.50;;;;;;;8.88;66.49;99268.47;430673;1273;145149;-50
2022/05/22 22:01:36;;;;;;;3.00;2.40;;;;;;;8.75;66.87;99274.86;429791;1273;145302;-62
2022/05/22 22:11:44;;;;;;;3.70;3.00;;;;;;;8.65;67.31;99282.25;432128;1273;211186;-60
2022/05/22 22:21:50;;;;;;;3.70;3.00;;;;;;;8.52;67.56;99284.44;430719;1273;142327;-61
2022/05/22 22:31:59;;;;;;;4.90;3.20;;;;;;;8.35;67.95;99279.13;430746;1273;141659;-59
2022/05/22 22:42:07;;;;;;;2.70;2.50;;;;;;;8.18;67.91;99286.91;432584;1273;142565;-61
2022/05/22 22:52:14;;;;;;;3.90;2.70;;;;;;;8.03;67.85;99285.67;431105;1273;142136;-61
2022/05/22 23:02:22;;;;;;;4.60;2.90;;;;;;;7.86;68.25;99283.57;430721;1273;142130;-60
2022/05/22 23:12:29;;;;;;;7.20;3.10;;;;;;;7.70;68.82;99282.40;430246;1273;143593;-62
2022/05/22 23:22:35;;;;;;;4.30;3.50;;;;;;;7.56;69.05;99288.02;434169;1272;142019;-61
2022/05/22 23:32:41;;;;;;;8.50;4.00;;;;;;;7.41;69.47;99289.88;431133;1273;140925;-61
2022/05/22 23:42:48;;;;;;;3.60;2.70;;;;;;;7.28;69.86;99290.44;430880;1274;143028;-61
2022/05/22 23:52:54;;;;;;;3.90;2.60;;;;;;;7.07;70.31;99290.52;436101;1272;141891;-62
